createdAt,value
2019-03-21T00:00:43.121Z,26.80
2019-03-21T00:03:10.225Z,26.80
2019-03-21T00:05:37.435Z,26.80
2019-03-21T00:08:04.523Z,26.80
2019-03-21T00:10:31.639Z,26.80
2019-03-21T00:12:59.235Z,26.80
2019-03-21T00:15:26.282Z,26.80
2019-03-21T00:17:53.355Z,26.80
2019-03-21T00:20:20.397Z,26.80
2019-03-21T00:22:47.582Z,26.80
2019-03-21T00:25:14.804Z,27.30
2019-03-21T00:27:41.896Z,26.70
2019-03-21T00:30:08.958Z,26.70
2019-03-21T00:32:36.243Z,26.70
2019-03-21T00:35:03.510Z,26.70
2019-03-21T00:37:30.619Z,26.80
2019-03-21T00:39:57.688Z,26.70
2019-03-21T00:42:24.728Z,26.70
2019-03-21T00:44:51.837Z,26.70
2019-03-21T00:47:18.904Z,26.70
2019-03-21T00:49:45.951Z,26.70
2019-03-21T00:52:13.193Z,26.70
2019-03-21T00:54:40.222Z,26.70
2019-03-21T00:57:07.309Z,26.60
2019-03-21T00:59:34.499Z,26.60
2019-03-21T01:02:01.535Z,26.60
2019-03-21T01:04:28.632Z,26.70
2019-03-21T01:06:55.676Z,26.60
2019-03-21T01:09:22.744Z,26.60
2019-03-21T01:11:49.807Z,27.10
2019-03-21T01:14:16.876Z,26.60
2019-03-21T01:16:43.946Z,26.60
2019-03-21T01:19:11.036Z,26.50
2019-03-21T01:21:38.089Z,26.50
2019-03-21T01:24:05.240Z,27.00
2019-03-21T01:26:32.392Z,26.50
2019-03-21T01:28:59.512Z,26.50
2019-03-21T01:31:26.980Z,26.50
2019-03-21T01:33:54.234Z,26.50
2019-03-21T01:36:21.276Z,26.40
2019-03-21T01:38:48.414Z,26.50
2019-03-21T01:41:15.464Z,26.40
2019-03-21T01:43:42.847Z,26.40
2019-03-21T01:46:09.908Z,26.40
2019-03-21T01:48:37.141Z,26.50
2019-03-21T01:51:04.238Z,26.40
2019-03-21T01:53:31.317Z,26.40
2019-03-21T01:55:58.523Z,26.50
2019-03-21T01:58:25.551Z,26.40
2019-03-21T02:00:52.759Z,26.50
2019-03-21T02:03:19.857Z,26.40
2019-03-21T02:05:46.918Z,26.50
2019-03-21T02:08:14.046Z,26.40
2019-03-21T02:10:41.163Z,26.40
2019-03-21T02:13:08.229Z,26.40
2019-03-21T02:15:35.509Z,26.40
2019-03-21T02:18:02.714Z,26.40
2019-03-21T02:20:29.857Z,26.40
2019-03-21T02:22:57.112Z,26.40
2019-03-21T02:25:24.404Z,26.40
2019-03-21T02:27:51.565Z,26.40
2019-03-21T02:30:18.640Z,26.40
2019-03-21T02:32:45.843Z,26.40
2019-03-21T02:35:12.919Z,26.40
2019-03-21T02:37:40.055Z,26.30
2019-03-21T02:40:07.215Z,26.40
2019-03-21T02:42:37.315Z,26.50
2019-03-21T02:45:08.938Z,26.30
2019-03-21T02:47:33.264Z,26.40
2019-03-21T02:50:00.444Z,26.40
2019-03-21T02:52:27.811Z,26.40
2019-03-21T02:54:54.924Z,26.40
2019-03-21T02:57:22.065Z,26.40
2019-03-21T02:59:49.117Z,26.30
2019-03-21T03:02:16.164Z,26.40
2019-03-21T03:04:43.407Z,26.40
2019-03-21T03:07:10.450Z,26.40
2019-03-21T03:09:37.746Z,26.30
2019-03-21T03:12:04.867Z,26.40
2019-03-21T03:14:32.298Z,26.40
2019-03-21T03:16:59.425Z,26.30
2019-03-21T03:19:26.562Z,26.80
2019-03-21T03:21:56.933Z,26.30
2019-03-21T03:24:24.074Z,26.30
2019-03-21T03:26:51.457Z,26.30
2019-03-21T03:29:18.549Z,26.30
2019-03-21T03:31:45.841Z,26.30
2019-03-21T03:34:12.981Z,26.30
2019-03-21T03:36:40.045Z,26.20
2019-03-21T03:39:07.173Z,26.20
2019-03-21T03:41:34.235Z,26.20
2019-03-21T03:44:01.324Z,26.20
2019-03-21T03:46:28.385Z,26.20
2019-03-21T03:48:55.465Z,26.20
2019-03-21T03:51:22.666Z,26.30
2019-03-21T03:53:49.809Z,26.30
2019-03-21T03:56:16.980Z,26.20
2019-03-21T03:58:44.100Z,26.20
2019-03-21T04:01:11.259Z,26.20
2019-03-21T04:03:38.451Z,26.20
2019-03-21T04:06:07.541Z,26.20
2019-03-21T04:08:34.626Z,26.10
2019-03-21T04:11:01.697Z,26.20
2019-03-21T04:13:28.783Z,26.10
2019-03-21T04:15:55.879Z,26.10
2019-03-21T04:18:22.977Z,26.00
2019-03-21T04:20:50.070Z,26.00
2019-03-21T04:23:17.318Z,26.00
2019-03-21T04:25:44.419Z,26.00
2019-03-21T04:28:11.484Z,26.00
2019-03-21T04:30:38.579Z,26.00
2019-03-21T04:33:07.757Z,26.00
2019-03-21T04:35:34.602Z,26.00
2019-03-21T04:38:01.671Z,26.00
2019-03-21T04:40:28.841Z,26.00
2019-03-21T04:42:56.037Z,26.00
2019-03-21T04:45:23.092Z,26.00
2019-03-21T04:47:50.175Z,26.00
2019-03-21T04:50:17.223Z,26.00
2019-03-21T04:52:44.367Z,26.00
2019-03-21T04:55:11.447Z,26.00
2019-03-21T04:57:38.524Z,26.10
2019-03-21T05:00:05.616Z,26.10
2019-03-21T05:02:32.752Z,26.10
2019-03-21T05:04:59.788Z,26.10
2019-03-21T05:07:26.881Z,26.10
2019-03-21T05:09:54.009Z,26.10
2019-03-21T05:12:21.152Z,26.10
2019-03-21T05:14:48.194Z,26.20
2019-03-21T05:17:15.512Z,26.10
2019-03-21T05:19:42.598Z,26.10
2019-03-21T05:22:09.730Z,26.10
2019-03-21T05:24:37.029Z,26.10
2019-03-21T05:27:04.094Z,26.00
2019-03-21T05:29:31.150Z,26.10
2019-03-21T05:31:58.583Z,26.30
2019-03-21T05:34:25.842Z,26.20
2019-03-21T05:36:52.953Z,26.10
2019-03-21T05:39:20.100Z,26.10
2019-03-21T05:41:47.268Z,26.10
2019-03-21T05:44:14.324Z,26.20
2019-03-21T05:46:41.397Z,26.20
2019-03-21T05:49:08.448Z,26.10
2019-03-21T05:51:35.740Z,26.10
2019-03-21T05:54:02.829Z,26.20
2019-03-21T05:56:29.915Z,26.10
2019-03-21T05:58:57.029Z,26.10
2019-03-21T06:01:35.415Z,26.20
2019-03-21T06:04:02.680Z,26.40
2019-03-21T06:06:33.997Z,26.60
2019-03-21T06:09:05.255Z,26.80
2019-03-21T06:11:42.418Z,26.50
2019-03-21T06:14:18.455Z,25.80
2019-03-21T06:16:50.907Z,25.50
2019-03-21T06:19:30.147Z,25.70
2019-03-21T06:22:01.308Z,25.80
2019-03-21T06:24:42.393Z,25.80
2019-03-21T06:27:19.110Z,25.80
2019-03-21T06:29:57.560Z,25.80
2019-03-21T06:32:34.601Z,25.80
2019-03-21T06:34:59.425Z,25.70
2019-03-21T06:37:28.664Z,25.80
2019-03-21T06:39:55.477Z,25.70
2019-03-21T06:42:22.991Z,25.80
2019-03-21T06:44:50.033Z,25.70
2019-03-21T06:47:17.284Z,25.70
2019-03-21T06:49:46.503Z,25.70
2019-03-21T06:52:13.151Z,25.70
2019-03-21T06:54:40.299Z,25.80
2019-03-21T06:57:07.450Z,25.70
2019-03-21T06:59:34.496Z,25.80
2019-03-21T07:02:01.536Z,25.80
2019-03-21T07:04:28.692Z,25.90
2019-03-21T07:06:56.821Z,25.90
2019-03-21T07:09:24.519Z,26.00
2019-03-21T07:11:51.672Z,26.00
2019-03-21T07:14:18.693Z,26.00
2019-03-21T07:16:45.791Z,26.00
2019-03-21T07:19:12.941Z,26.10
2019-03-21T07:21:40.091Z,26.00
2019-03-21T07:24:07.609Z,26.10
2019-03-21T07:26:34.767Z,26.10
2019-03-21T07:29:01.950Z,26.10
2019-03-21T07:31:29.067Z,26.10
2019-03-21T07:33:56.442Z,26.10
2019-03-21T07:36:26.171Z,26.20
2019-03-21T07:38:52.639Z,26.10
2019-03-21T07:41:19.742Z,26.10
2019-03-21T07:43:46.865Z,26.10
2019-03-21T07:46:14.033Z,26.00
2019-03-21T07:48:41.406Z,26.00
2019-03-21T07:51:08.553Z,26.10
2019-03-21T07:53:35.788Z,26.10
2019-03-21T07:56:04.629Z,26.10
2019-03-21T07:58:33.616Z,26.00
2019-03-21T08:01:01.183Z,26.10
2019-03-21T08:03:29.997Z,26.10
2019-03-21T08:06:02.817Z,26.00
2019-03-21T08:08:30.481Z,26.10
2019-03-21T08:10:57.785Z,26.10
2019-03-21T08:13:26.422Z,26.10
2019-03-21T08:18:31.940Z,26.10
2019-03-21T08:21:01.031Z,26.10
2019-03-21T08:23:28.438Z,26.10
2019-03-21T08:25:55.691Z,26.10
2019-03-21T08:28:27.551Z,26.10
2019-03-21T08:30:54.812Z,26.10
2019-03-21T08:33:28.113Z,26.10
2019-03-21T08:35:55.284Z,26.20
2019-03-21T08:38:22.873Z,26.20
2019-03-21T08:40:50.154Z,26.10
2019-03-21T08:43:17.726Z,26.20
2019-03-21T08:45:57.508Z,26.20
2019-03-21T08:48:32.377Z,26.20
2019-03-21T08:51:11.882Z,26.10
2019-03-21T08:53:45.242Z,26.20
2019-03-21T08:56:22.040Z,26.30
2019-03-21T08:58:58.855Z,26.40
2019-03-21T09:01:37.611Z,26.40
2019-03-21T09:04:12.695Z,26.40
2019-03-21T09:06:52.661Z,26.30
2019-03-21T09:09:26.358Z,26.40
2019-03-21T09:11:57.449Z,26.80
2019-03-21T09:14:32.214Z,27.00
2019-03-21T09:17:06.712Z,27.10
2019-03-21T09:19:43.262Z,27.20
2019-03-21T09:22:21.785Z,27.20
2019-03-21T09:24:56.739Z,27.20
2019-03-21T09:27:33.045Z,27.30
2019-03-21T09:29:58.778Z,27.40
2019-03-21T09:32:41.494Z,27.40
2019-03-21T09:35:15.408Z,27.60
2019-03-21T09:37:42.573Z,27.60
2019-03-21T09:40:31.397Z,27.70
2019-03-21T09:43:08.412Z,27.80
2019-03-21T09:45:46.725Z,27.80
2019-03-21T09:48:12.641Z,27.90
2019-03-21T09:50:53.680Z,27.90
2019-03-21T09:53:23.515Z,28.00
2019-03-21T09:56:04.170Z,28.00
2019-03-21T09:58:29.077Z,28.00
2019-03-21T10:00:56.334Z,28.60
2019-03-21T10:03:23.481Z,28.00
2019-03-21T10:05:50.597Z,28.00
2019-03-21T10:08:17.887Z,27.90
2019-03-21T10:10:45.010Z,27.90
2019-03-21T10:13:12.226Z,27.90
2019-03-21T10:15:39.400Z,27.90
2019-03-21T10:18:06.471Z,27.90
2019-03-21T10:20:33.551Z,27.80
2019-03-21T10:23:00.609Z,27.80
2019-03-21T10:25:27.645Z,27.70
2019-03-21T10:27:54.864Z,27.70
2019-03-21T10:30:21.944Z,27.70
2019-03-21T10:32:48.992Z,27.60
2019-03-21T10:35:16.034Z,27.60
2019-03-21T10:37:43.109Z,27.60
2019-03-21T10:40:10.162Z,27.60
2019-03-21T10:42:37.344Z,27.70
2019-03-21T10:45:04.412Z,27.60
2019-03-21T10:47:31.481Z,27.50
2019-03-21T10:49:58.529Z,27.50
2019-03-21T10:52:25.617Z,27.50
2019-03-21T10:54:52.655Z,27.40
2019-03-21T10:57:19.702Z,27.40
2019-03-21T10:59:46.767Z,27.40
2019-03-21T11:02:14.445Z,27.20
2019-03-21T11:04:41.483Z,27.40
2019-03-21T11:07:08.548Z,27.50
2019-03-21T11:09:35.586Z,27.40
2019-03-21T11:12:02.629Z,27.50
2019-03-21T11:14:29.792Z,27.40
2019-03-21T11:16:56.834Z,27.40
2019-03-21T11:19:23.899Z,27.40
2019-03-21T11:21:50.942Z,27.30
2019-03-21T11:24:18.182Z,27.30
2019-03-21T11:26:45.226Z,27.30
2019-03-21T11:29:12.299Z,27.30
2019-03-21T11:31:39.341Z,27.20
2019-03-21T11:34:06.569Z,27.20
2019-03-21T11:36:38.064Z,27.20
2019-03-21T11:39:02.394Z,27.20
2019-03-21T11:41:29.561Z,27.20
2019-03-21T11:43:56.627Z,27.10
2019-03-21T11:46:23.675Z,26.70
2019-03-21T11:48:50.749Z,22.30
2019-03-21T11:51:17.789Z,20.10
2019-03-21T11:53:44.846Z,19.80
2019-03-21T11:56:13.156Z,19.60
2019-03-21T11:58:40.364Z,19.40
2019-03-21T12:01:07.443Z,19.20
2019-03-21T12:03:34.484Z,19.30
2019-03-21T12:06:01.568Z,19.00
2019-03-21T12:08:28.610Z,18.90
2019-03-21T12:10:55.640Z,19.00
2019-03-21T12:13:22.809Z,19.20
2019-03-21T12:15:49.867Z,19.30
2019-03-21T12:18:16.901Z,18.70
2019-03-21T12:20:43.988Z,18.50
2019-03-21T12:23:11.026Z,19.50
2019-03-21T12:25:38.268Z,18.10
2019-03-21T12:28:05.321Z,17.90
2019-03-21T12:30:32.411Z,17.10
2019-03-21T12:32:59.439Z,17.40
2019-03-21T12:35:26.656Z,18.40
2019-03-21T12:37:53.801Z,19.40
2019-03-21T12:40:20.851Z,19.70
2019-03-21T12:42:47.995Z,20.60
2019-03-21T12:45:15.073Z,20.90
2019-03-21T12:47:42.195Z,21.20
2019-03-21T12:50:09.235Z,21.90
2019-03-21T12:52:41.295Z,22.30
2019-03-21T12:55:05.164Z,22.60
2019-03-21T12:57:32.214Z,22.90
2019-03-21T12:59:59.339Z,23.10
2019-03-21T13:02:32.346Z,23.10
2019-03-21T13:04:55.404Z,23.20
2019-03-21T13:07:22.764Z,23.30
2019-03-21T13:09:49.887Z,23.20
2019-03-21T13:12:16.931Z,23.30
2019-03-21T13:14:44.133Z,23.40
2019-03-21T13:17:11.168Z,23.60
2019-03-21T13:19:38.238Z,23.60
2019-03-21T13:22:05.285Z,23.80
2019-03-21T13:24:32.519Z,23.80
2019-03-21T13:27:00.305Z,23.90
2019-03-21T13:29:27.535Z,24.00
2019-03-21T13:31:54.585Z,24.10
2019-03-21T13:34:21.619Z,24.20
2019-03-21T13:36:48.783Z,24.20
2019-03-21T13:39:15.889Z,24.30
2019-03-21T13:41:42.929Z,24.40
2019-03-21T13:44:09.965Z,24.40
2019-03-21T13:46:37.183Z,24.40
2019-03-21T13:49:05.991Z,24.50
2019-03-21T13:51:32.999Z,24.70
2019-03-21T13:54:00.172Z,24.70
2019-03-21T13:56:37.589Z,24.70
2019-03-21T13:58:56.008Z,24.70
2019-03-21T14:01:23.076Z,24.70
2019-03-21T14:03:50.154Z,24.90
2019-03-21T14:06:17.219Z,25.10
2019-03-21T14:08:44.303Z,25.00
2019-03-21T14:11:11.352Z,25.10
2019-03-21T14:13:38.647Z,25.00
2019-03-21T14:16:05.747Z,25.00
2019-03-21T14:18:32.828Z,25.00
2019-03-21T14:20:59.872Z,24.90
2019-03-21T14:23:26.990Z,24.90
2019-03-21T14:25:54.102Z,25.00
2019-03-21T14:28:21.193Z,25.10
2019-03-21T14:30:49.132Z,25.00
2019-03-21T14:33:16.217Z,25.10
2019-03-21T14:35:43.264Z,25.20
2019-03-21T14:38:10.324Z,25.10
2019-03-21T14:40:37.402Z,25.10
2019-03-21T14:43:04.447Z,25.10
2019-03-21T14:45:31.649Z,25.30
2019-03-21T14:47:58.724Z,25.40
2019-03-21T14:50:25.753Z,25.40
2019-03-21T14:52:52.992Z,25.30
2019-03-21T14:55:20.043Z,25.30
2019-03-21T14:57:47.192Z,25.30
2019-03-21T15:00:14.368Z,25.40
2019-03-21T15:02:41.444Z,25.30
2019-03-21T15:05:08.650Z,25.40
2019-03-21T15:07:35.773Z,25.40
2019-03-21T15:10:02.842Z,25.50
2019-03-21T15:12:29.901Z,25.80
2019-03-21T15:14:57.042Z,25.90
2019-03-21T15:17:24.558Z,25.80
2019-03-21T15:19:51.665Z,25.70
2019-03-21T15:22:18.707Z,25.70
2019-03-21T15:24:45.845Z,25.70
2019-03-21T15:27:12.980Z,25.80
2019-03-21T15:29:40.085Z,26.00
2019-03-21T15:32:07.201Z,26.00
2019-03-21T15:34:34.232Z,25.90
2019-03-21T15:37:01.387Z,25.90
2019-03-21T15:39:28.448Z,26.00
2019-03-21T15:41:55.507Z,25.80
2019-03-21T15:44:22.672Z,25.80
2019-03-21T15:46:49.764Z,25.70
2019-03-21T15:49:16.904Z,25.80
2019-03-21T15:51:43.947Z,25.80
2019-03-21T15:54:11.034Z,25.80
2019-03-21T15:56:38.080Z,26.00
2019-03-21T15:59:05.152Z,26.00
2019-03-21T16:01:32.196Z,25.80
2019-03-21T16:03:59.429Z,25.80
2019-03-21T16:06:26.501Z,25.70
2019-03-21T16:08:53.534Z,25.80
2019-03-21T16:11:20.605Z,25.80
2019-03-21T16:13:47.655Z,25.80
2019-03-21T16:16:14.736Z,26.00
2019-03-21T16:18:41.779Z,26.10
2019-03-21T16:21:08.863Z,25.90
2019-03-21T16:23:35.903Z,26.00
2019-03-21T16:26:02.948Z,26.30
2019-03-21T16:28:30.020Z,26.20
2019-03-21T16:30:57.065Z,26.80
2019-03-21T16:33:24.204Z,26.80
2019-03-21T16:35:51.249Z,26.70
2019-03-21T16:38:18.321Z,26.60
2019-03-21T16:40:45.363Z,27.00
2019-03-21T16:43:12.606Z,26.80
2019-03-21T16:45:39.639Z,26.70
2019-03-21T16:48:08.950Z,26.50
2019-03-21T16:50:35.442Z,26.50
2019-03-21T16:53:02.647Z,26.40
2019-03-21T16:55:29.720Z,26.20
2019-03-21T16:57:56.797Z,26.30
2019-03-21T17:00:23.836Z,26.60
2019-03-21T17:02:50.907Z,26.60
2019-03-21T17:05:18.018Z,26.30
2019-03-21T17:07:45.139Z,26.60
2019-03-21T17:10:12.208Z,27.00
2019-03-21T17:12:40.702Z,27.00
2019-03-21T17:15:08.052Z,27.50
2019-03-21T17:17:35.131Z,27.20
2019-03-21T17:20:03.682Z,27.00
2019-03-21T17:22:30.990Z,27.10
2019-03-21T17:24:58.156Z,27.10
2019-03-21T17:27:25.198Z,27.10
2019-03-21T17:29:52.264Z,27.50
2019-03-21T17:32:19.584Z,27.50
2019-03-21T17:34:46.749Z,27.40
2019-03-21T17:37:13.995Z,27.30
2019-03-21T17:39:41.405Z,27.20
2019-03-21T17:42:08.689Z,27.30
2019-03-21T17:44:35.964Z,27.60
2019-03-21T17:47:03.018Z,27.50
2019-03-21T17:49:33.207Z,27.50
2019-03-21T17:52:01.562Z,27.50
2019-03-21T17:54:40.622Z,27.50
2019-03-21T17:56:57.423Z,27.10
2019-03-21T17:59:26.848Z,27.40
2019-03-21T18:01:54.112Z,27.20
2019-03-21T18:04:21.373Z,27.20
2019-03-21T18:06:48.447Z,27.60
2019-03-21T18:09:15.497Z,27.40
2019-03-21T18:11:42.553Z,27.20
2019-03-21T18:14:09.786Z,27.50
2019-03-21T18:16:36.859Z,27.50
2019-03-21T18:19:03.954Z,27.60
2019-03-21T18:21:31.055Z,27.70
2019-03-21T18:23:58.149Z,27.80
2019-03-21T18:26:25.198Z,28.10
2019-03-21T18:28:52.271Z,27.90
2019-03-21T18:31:19.489Z,28.30
2019-03-21T18:33:46.536Z,28.10
2019-03-21T18:36:13.614Z,27.90
2019-03-21T18:38:40.712Z,27.90
2019-03-21T18:41:07.785Z,27.50
2019-03-21T18:43:34.978Z,28.10
2019-03-21T18:46:02.012Z,27.60
2019-03-21T18:48:29.047Z,27.50
2019-03-21T18:50:56.130Z,27.50
2019-03-21T18:53:23.177Z,27.40
2019-03-21T18:55:50.448Z,27.60
2019-03-21T18:58:17.575Z,27.60
2019-03-21T19:00:44.650Z,27.60
2019-03-21T19:03:12.042Z,27.50
2019-03-21T19:05:39.080Z,27.60
2019-03-21T19:08:06.690Z,27.40
2019-03-21T19:10:33.722Z,27.20
2019-03-21T19:13:00.944Z,27.40
2019-03-21T19:15:28.020Z,27.40
2019-03-21T19:17:55.109Z,27.50
2019-03-21T19:20:22.232Z,27.40
2019-03-21T19:22:49.546Z,27.20
2019-03-21T19:25:18.760Z,27.40
2019-03-21T19:27:45.392Z,27.50
2019-03-21T19:30:12.485Z,27.70
2019-03-21T19:32:39.596Z,27.70
2019-03-21T19:35:06.675Z,27.70
2019-03-21T19:37:33.803Z,27.60
2019-03-21T19:40:00.830Z,27.70
2019-03-21T19:42:27.990Z,27.60
2019-03-21T19:44:55.109Z,27.40
2019-03-21T19:47:25.729Z,27.30
2019-03-21T19:49:51.562Z,27.20
2019-03-21T19:52:18.664Z,27.20
2019-03-21T19:54:45.708Z,27.30
2019-03-21T19:57:12.789Z,27.30
2019-03-21T19:59:40.795Z,27.30
2019-03-21T20:02:08.039Z,27.20
2019-03-21T20:04:35.122Z,27.00
2019-03-21T20:07:02.163Z,27.00
2019-03-21T20:09:29.233Z,27.00
2019-03-21T20:11:56.289Z,26.90
2019-03-21T20:14:23.490Z,26.90
2019-03-21T20:16:50.536Z,27.00
2019-03-21T20:19:17.599Z,27.40
2019-03-21T20:21:48.054Z,27.10
2019-03-21T20:24:13.574Z,27.40
2019-03-21T20:26:40.643Z,27.20
2019-03-21T20:29:07.702Z,27.80
2019-03-21T20:31:34.758Z,27.80
2019-03-21T20:34:02.650Z,27.60
2019-03-21T20:36:29.742Z,27.70
2019-03-21T20:38:56.801Z,27.60
2019-03-21T20:41:24.084Z,27.60
2019-03-21T20:43:51.148Z,28.30
2019-03-21T20:46:18.290Z,28.20
2019-03-21T20:48:45.356Z,28.10
2019-03-21T20:51:12.443Z,28.00
2019-03-21T20:53:39.517Z,27.90
2019-03-21T20:56:06.590Z,27.80
2019-03-21T20:58:33.670Z,27.70
2019-03-21T21:01:00.743Z,27.80
2019-03-21T21:03:27.821Z,28.40
2019-03-21T21:05:54.934Z,27.80
2019-03-21T21:08:22.003Z,27.90
2019-03-21T21:10:49.039Z,27.80
2019-03-21T21:13:16.318Z,27.80
2019-03-21T21:15:43.404Z,27.80
2019-03-21T21:18:10.449Z,27.80
2019-03-21T21:20:37.527Z,27.80
2019-03-21T21:23:04.760Z,27.80
2019-03-21T21:25:31.832Z,27.80
2019-03-21T21:27:58.903Z,27.90
2019-03-21T21:30:25.970Z,27.90
2019-03-21T21:32:53.041Z,27.80
2019-03-21T21:35:20.088Z,27.80
2019-03-21T21:37:47.204Z,27.80
2019-03-21T21:40:14.310Z,27.80
2019-03-21T21:42:41.370Z,27.90
2019-03-21T21:45:08.551Z,28.00
2019-03-21T21:47:36.199Z,27.80
2019-03-21T21:50:03.265Z,28.60
2019-03-21T21:52:41.386Z,27.60
2019-03-21T21:54:59.066Z,27.70
2019-03-21T21:57:26.111Z,27.60
2019-03-21T21:59:53.214Z,27.50
2019-03-21T22:02:20.654Z,28.00
2019-03-21T22:04:47.754Z,27.50
2019-03-21T22:07:14.847Z,27.40
2019-03-21T22:09:42.323Z,27.40
2019-03-21T22:12:09.632Z,27.40
2019-03-21T22:14:36.750Z,27.40
2019-03-21T22:17:04.004Z,27.40
2019-03-21T22:19:31.074Z,27.30
2019-03-21T22:21:58.596Z,27.30
2019-03-21T22:24:25.638Z,27.30
2019-03-21T22:26:52.706Z,27.30
2019-03-21T22:29:19.755Z,27.30
2019-03-21T22:31:46.979Z,27.30
2019-03-21T22:34:14.057Z,27.30
2019-03-21T22:36:49.376Z,27.20
2019-03-21T22:39:10.072Z,27.10
2019-03-21T22:41:37.113Z,27.10
2019-03-21T22:44:04.242Z,27.10
2019-03-21T22:46:31.285Z,27.00
2019-03-21T22:49:02.284Z,27.00
2019-03-21T22:51:33.103Z,27.00
2019-03-21T22:54:13.339Z,27.00
2019-03-21T22:56:45.760Z,27.00
2019-03-21T22:59:21.084Z,27.10
2019-03-21T23:01:56.865Z,27.00
2019-03-21T23:04:35.003Z,26.90
2019-03-21T23:07:09.480Z,26.90
2019-03-21T23:09:42.038Z,26.90
2019-03-21T23:12:18.109Z,26.90
2019-03-21T23:14:49.543Z,26.90
2019-03-21T23:17:25.229Z,27.10
2019-03-21T23:20:01.220Z,26.90
2019-03-21T23:22:27.443Z,27.00
2019-03-21T23:24:54.521Z,26.90
2019-03-21T23:27:21.553Z,27.00
2019-03-21T23:29:48.659Z,26.80
2019-03-21T23:32:15.775Z,26.80
2019-03-21T23:34:42.890Z,26.80
2019-03-21T23:37:09.935Z,26.80
2019-03-21T23:39:37.003Z,26.80
2019-03-21T23:42:04.081Z,26.80
2019-03-21T23:44:31.296Z,26.70
2019-03-21T23:46:58.366Z,26.70
2019-03-21T23:49:25.457Z,26.70
2019-03-21T23:51:52.567Z,26.70
2019-03-21T23:54:19.647Z,26.70
2019-03-21T23:57:04.559Z,26.70
2019-03-21T23:59:36.807Z,26.80
